Yuci, China
Current Conditions -  °F | °C
As of 7:30 PM on Saturday 20 Dec 2014 (Local Time) from ZBYN Reporting Station
Clear Clear  
Wind Chill: 10°   Ceiling: Unl
Heat Index: 23°   Visibility: 6mi
Dew Point: -11°   Wind: 16mph
Humidity: 22%   Direction: 310°NW
Pressure: 30.39"   Gusts: NA
Location:  37.68°N, 112.73°E
Report Text: ZBYN 201130Z 31007MPS CAVOK M05/M24 Q1029 NOSIG
Loading
Personal Weather Stations






























Interactive Weather Map New forecast layout! Learn more

10-Day Weather Forecast

Advertisements
Track Severe Weather on mobile